sensor_id;sensor_type;location;lat;lon;timestamp;P1;durP1;ratioP1;P2;durP2;ratioP2
76357;SDS011;65185;21.060;105.826;2023-05-10T00:00:29;46.10;;;25.13;;
76357;SDS011;65185;21.060;105.826;2023-05-10T00:02:56;48.53;;;25.27;;
76357;SDS011;65185;21.060;105.826;2023-05-10T00:05:22;52.78;;;24.13;;
76357;SDS011;65185;21.060;105.826;2023-05-10T00:07:49;50.05;;;25.60;;
76357;SDS011;65185;21.060;105.826;2023-05-10T00:10:16;53.08;;;28.15;;
76357;SDS011;65185;21.060;105.826;2023-05-10T00:12:42;67.53;;;31.00;;
76357;SDS011;65185;21.060;105.826;2023-05-10T00:15:09;61.38;;;30.20;;
76357;SDS011;65185;21.060;105.826;2023-05-10T00:17:35;66.05;;;31.05;;
76357;SDS011;65185;21.060;105.826;2023-05-10T00:20:02;64.05;;;29.67;;
76357;SDS011;65185;21.060;105.826;2023-05-10T00:22:30;60.88;;;27.85;;
76357;SDS011;65185;21.060;105.826;2023-05-10T00:24:57;58.40;;;28.05;;
76357;SDS011;65185;21.060;105.826;2023-05-10T00:27:24;61.63;;;29.77;;
76357;SDS011;65185;21.060;105.826;2023-05-10T00:29:50;65.70;;;29.20;;
76357;SDS011;65185;21.060;105.826;2023-05-10T00:32:17;64.25;;;30.80;;
76357;SDS011;65185;21.060;105.826;2023-05-10T00:34:43;63.47;;;28.85;;
76357;SDS011;65185;21.060;105.826;2023-05-10T00:37:09;61.30;;;28.10;;
76357;SDS011;65185;21.060;105.826;2023-05-10T00:39:36;64.65;;;29.13;;
76357;SDS011;65185;21.060;105.826;2023-05-10T00:42:03;57.47;;;27.48;;
76357;SDS011;65185;21.060;105.826;2023-05-10T00:44:29;66.78;;;29.52;;
76357;SDS011;65185;21.060;105.826;2023-05-10T00:46:56;69.65;;;29.80;;
76357;SDS011;65185;21.060;105.826;2023-05-10T00:49:23;64.35;;;29.73;;
76357;SDS011;65185;21.060;105.826;2023-05-10T00:51:50;59.33;;;29.27;;
76357;SDS011;65185;21.060;105.826;2023-05-10T00:54:17;61.38;;;28.90;;
76357;SDS011;65185;21.060;105.826;2023-05-10T00:56:43;59.70;;;28.75;;
76357;SDS011;65185;21.060;105.826;2023-05-10T00:59:15;62.97;;;31.77;;
76357;SDS011;65185;21.060;105.826;2023-05-10T01:01:43;64.88;;;31.48;;
76357;SDS011;65185;21.060;105.826;2023-05-10T01:04:13;60.60;;;30.13;;
76357;SDS011;65185;21.060;105.826;2023-05-10T01:06:41;66.55;;;31.45;;
76357;SDS011;65185;21.060;105.826;2023-05-10T01:09:08;55.80;;;29.60;;
76357;SDS011;65185;21.060;105.826;2023-05-10T01:11:35;59.67;;;27.65;;
76357;SDS011;65185;21.060;105.826;2023-05-10T01:14:04;53.67;;;27.48;;
76357;SDS011;65185;21.060;105.826;2023-05-10T01:16:32;52.58;;;27.08;;
76357;SDS011;65185;21.060;105.826;2023-05-10T01:19:03;57.42;;;28.67;;
76357;SDS011;65185;21.060;105.826;2023-05-10T01:21:43;59.10;;;27.58;;
76357;SDS011;65185;21.060;105.826;2023-05-10T01:27:37;59.60;;;27.48;;
76357;SDS011;65185;21.060;105.826;2023-05-10T01:33:15;52.13;;;28.20;;
76357;SDS011;65185;21.060;105.826;2023-05-10T01:38:20;56.50;;;29.40;;
76357;SDS011;65185;21.060;105.826;2023-05-10T01:41:18;57.28;;;30.77;;
76357;SDS011;65185;21.060;105.826;2023-05-10T01:46:36;55.83;;;29.50;;
76357;SDS011;65185;21.060;105.826;2023-05-10T01:49:08;56.55;;;28.92;;
76357;SDS011;65185;21.060;105.826;2023-05-10T01:51:44;59.35;;;30.05;;
76357;SDS011;65185;21.060;105.826;2023-05-10T01:54:14;52.25;;;27.33;;
76357;SDS011;65185;21.060;105.826;2023-05-10T01:56:43;64.25;;;31.63;;
76357;SDS011;65185;21.060;105.826;2023-05-10T01:59:13;60.15;;;31.08;;
76357;SDS011;65185;21.060;105.826;2023-05-10T02:01:44;50.97;;;28.27;;
76357;SDS011;65185;21.060;105.826;2023-05-10T02:04:13;59.60;;;29.20;;
76357;SDS011;65185;21.060;105.826;2023-05-10T02:06:43;54.67;;;28.92;;
76357;SDS011;65185;21.060;105.826;2023-05-10T02:09:13;52.67;;;25.90;;
76357;SDS011;65185;21.060;105.826;2023-05-10T02:11:41;50.65;;;28.08;;
76357;SDS011;65185;21.060;105.826;2023-05-10T02:14:09;43.25;;;26.23;;
76357;SDS011;65185;21.060;105.826;2023-05-10T02:16:38;49.58;;;27.80;;
76357;SDS011;65185;21.060;105.826;2023-05-10T02:19:06;48.50;;;27.20;;
76357;SDS011;65185;21.060;105.826;2023-05-10T02:21:34;42.58;;;26.38;;
76357;SDS011;65185;21.060;105.826;2023-05-10T02:24:01;43.50;;;25.33;;
76357;SDS011;65185;21.060;105.826;2023-05-10T02:26:30;43.00;;;25.58;;
76357;SDS011;65185;21.060;105.826;2023-05-10T02:28:59;51.20;;;29.52;;
76357;SDS011;65185;21.060;105.826;2023-05-10T02:31:30;43.05;;;27.20;;
76357;SDS011;65185;21.060;105.826;2023-05-10T02:33:58;49.78;;;28.98;;
76357;SDS011;65185;21.060;105.826;2023-05-10T02:36:26;42.92;;;25.58;;
76357;SDS011;65185;21.060;105.826;2023-05-10T02:38:54;45.63;;;26.52;;
76357;SDS011;65185;21.060;105.826;2023-05-10T02:41:21;48.58;;;28.25;;
76357;SDS011;65185;21.060;105.826;2023-05-10T02:43:50;48.67;;;28.17;;
76357;SDS011;65185;21.060;105.826;2023-05-10T02:46:21;46.17;;;26.38;;
76357;SDS011;65185;21.060;105.826;2023-05-10T02:48:47;41.85;;;26.35;;
76357;SDS011;65185;21.060;105.826;2023-05-10T02:51:14;45.00;;;25.42;;
76357;SDS011;65185;21.060;105.826;2023-05-10T02:53:43;52.60;;;30.23;;
76357;SDS011;65185;21.060;105.826;2023-05-10T02:58:41;46.13;;;26.00;;
76357;SDS011;65185;21.060;105.826;2023-05-10T03:01:08;44.53;;;27.15;;
76357;SDS011;65185;21.060;105.826;2023-05-10T03:03:34;54.63;;;30.35;;
76357;SDS011;65185;21.060;105.826;2023-05-10T03:06:01;44.88;;;26.15;;
76357;SDS011;65185;21.060;105.826;2023-05-10T03:08:27;44.40;;;27.13;;
76357;SDS011;65185;21.060;105.826;2023-05-10T03:16:29;42.53;;;23.63;;
76357;SDS011;65185;21.060;105.826;2023-05-10T03:19:06;49.08;;;25.17;;
76357;SDS011;65185;21.060;105.826;2023-05-10T03:21:38;44.95;;;25.33;;
76357;SDS011;65185;21.060;105.826;2023-05-10T03:24:10;39.03;;;22.15;;
76357;SDS011;65185;21.060;105.826;2023-05-10T03:26:40;36.55;;;22.98;;
76357;SDS011;65185;21.060;105.826;2023-05-10T03:29:11;42.75;;;24.83;;
76357;SDS011;65185;21.060;105.826;2023-05-10T03:31:40;47.83;;;26.75;;
76357;SDS011;65185;21.060;105.826;2023-05-10T03:34:07;38.15;;;23.38;;
76357;SDS011;65185;21.060;105.826;2023-05-10T03:36:34;43.28;;;29.42;;
76357;SDS011;65185;21.060;105.826;2023-05-10T03:39:00;55.42;;;33.28;;
76357;SDS011;65185;21.060;105.826;2023-05-10T03:41:27;50.20;;;30.40;;
76357;SDS011;65185;21.060;105.826;2023-05-10T03:43:54;53.10;;;33.65;;
76357;SDS011;65185;21.060;105.826;2023-05-10T03:46:21;57.33;;;35.30;;
76357;SDS011;65185;21.060;105.826;2023-05-10T03:48:47;50.08;;;32.95;;
76357;SDS011;65185;21.060;105.826;2023-05-10T03:51:13;58.15;;;35.60;;
76357;SDS011;65185;21.060;105.826;2023-05-10T03:53:40;55.25;;;34.80;;
76357;SDS011;65185;21.060;105.826;2023-05-10T03:56:06;57.80;;;37.50;;
76357;SDS011;65185;21.060;105.826;2023-05-10T04:01:34;57.70;;;33.83;;
76357;SDS011;65185;21.060;105.826;2023-05-10T04:04:01;59.05;;;35.75;;
76357;SDS011;65185;21.060;105.826;2023-05-10T04:06:27;53.63;;;33.65;;
76357;SDS011;65185;21.060;105.826;2023-05-10T04:08:54;56.70;;;35.50;;
76357;SDS011;65185;21.060;105.826;2023-05-10T04:11:21;52.85;;;33.78;;
76357;SDS011;65185;21.060;105.826;2023-05-10T04:13:48;44.03;;;28.58;;
76357;SDS011;65185;21.060;105.826;2023-05-10T04:16:14;42.60;;;28.02;;
76357;SDS011;65185;21.060;105.826;2023-05-10T04:18:41;42.28;;;27.75;;
76357;SDS011;65185;21.060;105.826;2023-05-10T04:21:11;43.15;;;28.50;;
76357;SDS011;65185;21.060;105.826;2023-05-10T04:23:41;45.53;;;29.48;;
76357;SDS011;65185;21.060;105.826;2023-05-10T04:26:08;41.30;;;27.83;;
76357;SDS011;65185;21.060;105.826;2023-05-10T04:28:35;40.08;;;25.83;;
76357;SDS011;65185;21.060;105.826;2023-05-10T04:31:08;45.63;;;28.90;;
76357;SDS011;65185;21.060;105.826;2023-05-10T04:33:36;42.53;;;26.25;;
76357;SDS011;65185;21.060;105.826;2023-05-10T04:36:03;51.63;;;32.22;;
76357;SDS011;65185;21.060;105.826;2023-05-10T04:38:30;46.25;;;31.38;;
76357;SDS011;65185;21.060;105.826;2023-05-10T04:41:06;46.40;;;29.65;;
76357;SDS011;65185;21.060;105.826;2023-05-10T04:43:34;53.05;;;31.38;;
76357;SDS011;65185;21.060;105.826;2023-05-10T04:46:01;46.95;;;29.05;;
76357;SDS011;65185;21.060;105.826;2023-05-10T04:48:28;44.05;;;31.30;;
76357;SDS011;65185;21.060;105.826;2023-05-10T04:50:55;51.28;;;34.17;;
76357;SDS011;65185;21.060;105.826;2023-05-10T04:53:22;54.92;;;35.72;;
76357;SDS011;65185;21.060;105.826;2023-05-10T04:55:49;48.42;;;35.13;;
76357;SDS011;65185;21.060;105.826;2023-05-10T04:58:15;46.20;;;33.20;;
76357;SDS011;65185;21.060;105.826;2023-05-10T05:00:42;44.00;;;33.03;;
76357;SDS011;65185;21.060;105.826;2023-05-10T05:03:09;55.53;;;36.67;;
76357;SDS011;65185;21.060;105.826;2023-05-10T05:05:36;53.67;;;37.22;;
76357;SDS011;65185;21.060;105.826;2023-05-10T05:08:03;46.40;;;32.55;;
76357;SDS011;65185;21.060;105.826;2023-05-10T05:10:30;42.20;;;30.77;;
76357;SDS011;65185;21.060;105.826;2023-05-10T05:12:56;44.25;;;30.95;;
76357;SDS011;65185;21.060;105.826;2023-05-10T05:15:23;50.25;;;34.33;;
76357;SDS011;65185;21.060;105.826;2023-05-10T05:17:50;47.80;;;33.10;;
76357;SDS011;65185;21.060;105.826;2023-05-10T05:20:17;41.45;;;26.48;;
76357;SDS011;65185;21.060;105.826;2023-05-10T05:22:44;40.65;;;26.85;;
76357;SDS011;65185;21.060;105.826;2023-05-10T05:25:11;39.50;;;27.30;;
76357;SDS011;65185;21.060;105.826;2023-05-10T05:27:38;38.88;;;26.40;;
76357;SDS011;65185;21.060;105.826;2023-05-10T05:30:05;45.40;;;30.33;;
76357;SDS011;65185;21.060;105.826;2023-05-10T05:32:32;47.22;;;31.20;;
76357;SDS011;65185;21.060;105.826;2023-05-10T05:35:04;40.30;;;29.75;;
76357;SDS011;65185;21.060;105.826;2023-05-10T05:37:31;45.65;;;30.92;;
76357;SDS011;65185;21.060;105.826;2023-05-10T05:39:57;48.55;;;32.20;;
76357;SDS011;65185;21.060;105.826;2023-05-10T05:42:26;43.28;;;28.38;;
76357;SDS011;65185;21.060;105.826;2023-05-10T05:44:53;42.55;;;28.00;;
76357;SDS011;65185;21.060;105.826;2023-05-10T05:47:20;42.17;;;27.10;;
76357;SDS011;65185;21.060;105.826;2023-05-10T05:49:47;45.05;;;28.83;;
76357;SDS011;65185;21.060;105.826;2023-05-10T05:52:14;40.42;;;27.17;;
76357;SDS011;65185;21.060;105.826;2023-05-10T05:54:40;43.60;;;30.02;;
76357;SDS011;65185;21.060;105.826;2023-05-10T05:57:07;45.95;;;28.90;;
76357;SDS011;65185;21.060;105.826;2023-05-10T05:59:34;43.25;;;30.63;;
76357;SDS011;65185;21.060;105.826;2023-05-10T06:02:01;44.70;;;30.05;;
76357;SDS011;65185;21.060;105.826;2023-05-10T06:04:27;42.70;;;30.40;;
76357;SDS011;65185;21.060;105.826;2023-05-10T06:06:54;40.88;;;29.17;;
76357;SDS011;65185;21.060;105.826;2023-05-10T06:09:21;47.95;;;29.92;;
76357;SDS011;65185;21.060;105.826;2023-05-10T06:11:49;39.25;;;27.45;;
76357;SDS011;65185;21.060;105.826;2023-05-10T06:14:16;47.22;;;28.58;;
76357;SDS011;65185;21.060;105.826;2023-05-10T06:16:43;40.17;;;26.73;;
76357;SDS011;65185;21.060;105.826;2023-05-10T06:19:09;43.35;;;27.83;;
76357;SDS011;65185;21.060;105.826;2023-05-10T06:21:36;40.55;;;25.75;;
76357;SDS011;65185;21.060;105.826;2023-05-10T06:24:03;38.90;;;25.85;;
76357;SDS011;65185;21.060;105.826;2023-05-10T06:26:32;40.53;;;23.92;;
76357;SDS011;65185;21.060;105.826;2023-05-10T06:28:59;38.95;;;25.25;;
76357;SDS011;65185;21.060;105.826;2023-05-10T06:31:26;37.05;;;23.23;;
76357;SDS011;65185;21.060;105.826;2023-05-10T06:33:53;37.30;;;22.77;;
76357;SDS011;65185;21.060;105.826;2023-05-10T06:36:20;38.00;;;24.23;;
76357;SDS011;65185;21.060;105.826;2023-05-10T06:38:47;36.00;;;23.42;;
76357;SDS011;65185;21.060;105.826;2023-05-10T06:41:14;42.92;;;25.77;;
76357;SDS011;65185;21.060;105.826;2023-05-10T06:43:41;36.83;;;24.40;;
76357;SDS011;65185;21.060;105.826;2023-05-10T06:46:14;34.60;;;22.35;;
76357;SDS011;65185;21.060;105.826;2023-05-10T06:48:40;40.13;;;24.55;;
76357;SDS011;65185;21.060;105.826;2023-05-10T06:51:07;43.05;;;25.42;;
76357;SDS011;65185;21.060;105.826;2023-05-10T06:53:34;38.15;;;22.42;;
76357;SDS011;65185;21.060;105.826;2023-05-10T06:56:01;31.10;;;20.83;;
76357;SDS011;65185;21.060;105.826;2023-05-10T06:58:28;38.38;;;23.52;;
76357;SDS011;65185;21.060;105.826;2023-05-10T07:01:01;31.98;;;20.90;;
76357;SDS011;65185;21.060;105.826;2023-05-10T07:03:28;30.95;;;20.98;;
76357;SDS011;65185;21.060;105.826;2023-05-10T07:05:59;33.75;;;21.08;;
76357;SDS011;65185;21.060;105.826;2023-05-10T07:08:29;35.00;;;21.23;;
76357;SDS011;65185;21.060;105.826;2023-05-10T07:11:03;29.17;;;19.63;;
76357;SDS011;65185;21.060;105.826;2023-05-10T07:13:31;30.95;;;19.13;;
76357;SDS011;65185;21.060;105.826;2023-05-10T07:15:58;38.67;;;20.90;;
76357;SDS011;65185;21.060;105.826;2023-05-10T07:18:31;30.30;;;18.75;;
76357;SDS011;65185;21.060;105.826;2023-05-10T07:20:58;32.17;;;18.95;;
76357;SDS011;65185;21.060;105.826;2023-05-10T07:23:26;32.38;;;20.10;;
76357;SDS011;65185;21.060;105.826;2023-05-10T07:25:53;32.80;;;20.50;;
76357;SDS011;65185;21.060;105.826;2023-05-10T07:28:20;35.30;;;19.83;;
76357;SDS011;65185;21.060;105.826;2023-05-10T07:30:46;35.05;;;19.42;;
76357;SDS011;65185;21.060;105.826;2023-05-10T07:33:13;32.78;;;18.17;;
76357;SDS011;65185;21.060;105.826;2023-05-10T07:35:41;28.73;;;18.17;;
76357;SDS011;65185;21.060;105.826;2023-05-10T07:38:08;25.75;;;17.65;;
76357;SDS011;65185;21.060;105.826;2023-05-10T07:40:36;25.45;;;17.67;;
76357;SDS011;65185;21.060;105.826;2023-05-10T07:43:03;24.13;;;16.40;;
76357;SDS011;65185;21.060;105.826;2023-05-10T07:45:30;25.55;;;17.05;;
76357;SDS011;65185;21.060;105.826;2023-05-10T07:47:57;29.92;;;18.55;;
76357;SDS011;65185;21.060;105.826;2023-05-10T07:50:24;33.38;;;17.77;;
76357;SDS011;65185;21.060;105.826;2023-05-10T07:52:51;30.63;;;17.63;;
76357;SDS011;65185;21.060;105.826;2023-05-10T07:55:18;30.25;;;17.65;;
76357;SDS011;65185;21.060;105.826;2023-05-10T07:57:46;25.90;;;17.17;;
76357;SDS011;65185;21.060;105.826;2023-05-10T08:00:13;28.95;;;17.08;;
76357;SDS011;65185;21.060;105.826;2023-05-10T08:02:43;28.35;;;16.42;;
76357;SDS011;65185;21.060;105.826;2023-05-10T08:05:10;27.08;;;17.15;;
76357;SDS011;65185;21.060;105.826;2023-05-10T08:07:37;26.25;;;17.75;;
76357;SDS011;65185;21.060;105.826;2023-05-10T08:10:04;29.02;;;17.52;;
76357;SDS011;65185;21.060;105.826;2023-05-10T08:12:38;25.05;;;16.05;;
76357;SDS011;65185;21.060;105.826;2023-05-10T08:15:09;28.38;;;16.60;;
76357;SDS011;65185;21.060;105.826;2023-05-10T08:17:36;30.13;;;17.77;;
76357;SDS011;65185;21.060;105.826;2023-05-10T08:20:03;33.58;;;18.75;;
76357;SDS011;65185;21.060;105.826;2023-05-10T08:22:30;27.60;;;18.05;;
76357;SDS011;65185;21.060;105.826;2023-05-10T08:24:57;31.80;;;22.08;;
76357;SDS011;65185;21.060;105.826;2023-05-10T08:27:24;35.15;;;19.52;;
76357;SDS011;65185;21.060;105.826;2023-05-10T08:29:51;30.58;;;19.40;;
76357;SDS011;65185;21.060;105.826;2023-05-10T08:32:18;27.75;;;18.20;;
76357;SDS011;65185;21.060;105.826;2023-05-10T08:34:44;35.80;;;20.95;;
76357;SDS011;65185;21.060;105.826;2023-05-10T08:37:11;36.55;;;19.35;;
76357;SDS011;65185;21.060;105.826;2023-05-10T08:39:38;40.30;;;23.45;;
76357;SDS011;65185;21.060;105.826;2023-05-10T08:42:05;33.72;;;20.23;;
76357;SDS011;65185;21.060;105.826;2023-05-10T08:44:34;35.42;;;20.98;;
76357;SDS011;65185;21.060;105.826;2023-05-10T08:47:05;29.75;;;19.23;;
76357;SDS011;65185;21.060;105.826;2023-05-10T08:49:33;28.73;;;19.92;;
76357;SDS011;65185;21.060;105.826;2023-05-10T08:52:02;29.40;;;19.10;;
76357;SDS011;65185;21.060;105.826;2023-05-10T08:54:33;29.85;;;18.45;;
76357;SDS011;65185;21.060;105.826;2023-05-10T08:57:01;30.33;;;17.10;;
76357;SDS011;65185;21.060;105.826;2023-05-10T08:59:28;34.28;;;18.48;;
76357;SDS011;65185;21.060;105.826;2023-05-10T09:01:58;31.35;;;18.60;;
76357;SDS011;65185;21.060;105.826;2023-05-10T09:04:25;25.90;;;15.93;;
76357;SDS011;65185;21.060;105.826;2023-05-10T09:06:53;34.83;;;17.85;;
76357;SDS011;65185;21.060;105.826;2023-05-10T09:09:20;37.10;;;18.75;;
76357;SDS011;65185;21.060;105.826;2023-05-10T09:11:48;31.38;;;17.45;;
76357;SDS011;65185;21.060;105.826;2023-05-10T09:14:15;31.48;;;17.00;;
76357;SDS011;65185;21.060;105.826;2023-05-10T09:16:42;31.83;;;18.17;;
76357;SDS011;65185;21.060;105.826;2023-05-10T09:19:10;29.77;;;19.08;;
76357;SDS011;65185;21.060;105.826;2023-05-10T09:21:36;28.42;;;18.33;;
76357;SDS011;65185;21.060;105.826;2023-05-10T09:24:07;34.70;;;19.02;;
76357;SDS011;65185;21.060;105.826;2023-05-10T09:26:35;28.80;;;18.13;;
76357;SDS011;65185;21.060;105.826;2023-05-10T09:29:12;28.63;;;17.65;;
76357;SDS011;65185;21.060;105.826;2023-05-10T09:31:49;35.78;;;20.45;;
76357;SDS011;65185;21.060;105.826;2023-05-10T09:36:56;30.60;;;19.50;;
76357;SDS011;65185;21.060;105.826;2023-05-10T09:39:38;32.17;;;18.25;;
76357;SDS011;65185;21.060;105.826;2023-05-10T09:42:08;32.78;;;18.50;;
76357;SDS011;65185;21.060;105.826;2023-05-10T09:44:35;30.85;;;17.35;;
76357;SDS011;65185;21.060;105.826;2023-05-10T09:47:03;33.50;;;16.80;;
76357;SDS011;65185;21.060;105.826;2023-05-10T09:49:30;31.98;;;17.90;;
76357;SDS011;65185;21.060;105.826;2023-05-10T09:52:05;26.15;;;17.08;;
76357;SDS011;65185;21.060;105.826;2023-05-10T09:54:33;28.40;;;18.08;;
76357;SDS011;65185;21.060;105.826;2023-05-10T09:57:01;27.65;;;16.95;;
76357;SDS011;65185;21.060;105.826;2023-05-10T09:59:28;29.67;;;18.40;;
76357;SDS011;65185;21.060;105.826;2023-05-10T10:01:56;34.97;;;20.08;;
76357;SDS011;65185;21.060;105.826;2023-05-10T10:04:25;35.72;;;21.88;;
76357;SDS011;65185;21.060;105.826;2023-05-10T10:07:00;37.17;;;21.10;;
76357;SDS011;65185;21.060;105.826;2023-05-10T10:09:28;37.13;;;20.73;;
76357;SDS011;65185;21.060;105.826;2023-05-10T10:11:55;35.60;;;20.42;;
76357;SDS011;65185;21.060;105.826;2023-05-10T10:14:22;33.17;;;18.17;;
76357;SDS011;65185;21.060;105.826;2023-05-10T10:16:50;31.17;;;19.02;;
76357;SDS011;65185;21.060;105.826;2023-05-10T10:19:20;35.53;;;19.27;;
76357;SDS011;65185;21.060;105.826;2023-05-10T10:21:48;30.92;;;18.00;;
76357;SDS011;65185;21.060;105.826;2023-05-10T10:24:16;42.42;;;19.98;;
76357;SDS011;65185;21.060;105.826;2023-05-10T10:26:42;27.38;;;17.52;;
76357;SDS011;65185;21.060;105.826;2023-05-10T10:29:20;27.50;;;17.15;;
76357;SDS011;65185;21.060;105.826;2023-05-10T10:31:54;31.05;;;18.17;;
76357;SDS011;65185;21.060;105.826;2023-05-10T10:34:35;30.73;;;17.08;;
76357;SDS011;65185;21.060;105.826;2023-05-10T10:37:05;34.65;;;15.93;;
76357;SDS011;65185;21.060;105.826;2023-05-10T10:39:32;34.78;;;17.33;;
76357;SDS011;65185;21.060;105.826;2023-05-10T10:49:52;32.55;;;16.73;;
76357;SDS011;65185;21.060;105.826;2023-05-10T10:55:06;31.20;;;16.30;;
76357;SDS011;65185;21.060;105.826;2023-05-10T11:03:29;36.80;;;18.85;;
76357;SDS011;65185;21.060;105.826;2023-05-10T11:05:50;34.70;;;20.60;;
76357;SDS011;65185;21.060;105.826;2023-05-10T11:08:30;32.78;;;18.90;;
76357;SDS011;65185;21.060;105.826;2023-05-10T11:16:14;31.08;;;16.45;;
76357;SDS011;65185;21.060;105.826;2023-05-10T11:19:03;29.95;;;16.92;;
76357;SDS011;65185;21.060;105.826;2023-05-10T11:21:31;30.88;;;16.77;;
76357;SDS011;65185;21.060;105.826;2023-05-10T11:23:59;27.00;;;15.52;;
76357;SDS011;65185;21.060;105.826;2023-05-10T11:26:34;28.63;;;15.77;;
76357;SDS011;65185;21.060;105.826;2023-05-10T11:29:01;28.50;;;14.98;;
76357;SDS011;65185;21.060;105.826;2023-05-10T11:31:30;30.15;;;14.50;;
76357;SDS011;65185;21.060;105.826;2023-05-10T11:33:58;27.10;;;13.50;;
76357;SDS011;65185;21.060;105.826;2023-05-10T11:36:29;28.13;;;13.55;;
76357;SDS011;65185;21.060;105.826;2023-05-10T11:38:59;27.50;;;13.20;;
76357;SDS011;65185;21.060;105.826;2023-05-10T11:41:27;26.10;;;13.80;;
76357;SDS011;65185;21.060;105.826;2023-05-10T11:43:55;28.40;;;13.23;;
76357;SDS011;65185;21.060;105.826;2023-05-10T11:46:27;23.83;;;12.65;;
76357;SDS011;65185;21.060;105.826;2023-05-10T11:48:56;29.85;;;13.00;;
76357;SDS011;65185;21.060;105.826;2023-05-10T11:51:32;21.25;;;12.15;;
76357;SDS011;65185;21.060;105.826;2023-05-10T11:54:06;27.40;;;13.05;;
76357;SDS011;65185;21.060;105.826;2023-05-10T11:56:34;22.23;;;12.27;;
76357;SDS011;65185;21.060;105.826;2023-05-10T11:59:02;23.88;;;11.85;;
76357;SDS011;65185;21.060;105.826;2023-05-10T12:01:30;30.40;;;13.38;;
76357;SDS011;65185;21.060;105.826;2023-05-10T12:03:57;29.10;;;12.80;;
76357;SDS011;65185;21.060;105.826;2023-05-10T12:06:29;22.05;;;13.20;;
76357;SDS011;65185;21.060;105.826;2023-05-10T12:08:58;30.25;;;13.63;;
76357;SDS011;65185;21.060;105.826;2023-05-10T12:11:26;24.90;;;12.77;;
76357;SDS011;65185;21.060;105.826;2023-05-10T12:13:54;31.17;;;13.82;;
76357;SDS011;65185;21.060;105.826;2023-05-10T12:16:25;29.23;;;13.73;;
76357;SDS011;65185;21.060;105.826;2023-05-10T12:18:58;28.52;;;13.68;;
76357;SDS011;65185;21.060;105.826;2023-05-10T12:21:27;28.38;;;14.90;;
76357;SDS011;65185;21.060;105.826;2023-05-10T12:23:59;32.03;;;14.90;;
76357;SDS011;65185;21.060;105.826;2023-05-10T12:26:28;26.67;;;14.70;;
76357;SDS011;65185;21.060;105.826;2023-05-10T12:29:11;28.42;;;15.10;;
76357;SDS011;65185;21.060;105.826;2023-05-10T12:31:51;29.70;;;15.50;;
76357;SDS011;65185;21.060;105.826;2023-05-10T12:34:35;28.38;;;14.88;;
76357;SDS011;65185;21.060;105.826;2023-05-10T12:37:03;31.90;;;14.93;;
76357;SDS011;65185;21.060;105.826;2023-05-10T12:39:40;29.55;;;14.75;;
76357;SDS011;65185;21.060;105.826;2023-05-10T12:42:08;28.13;;;14.45;;
76357;SDS011;65185;21.060;105.826;2023-05-10T12:44:35;29.05;;;16.25;;
76357;SDS011;65185;21.060;105.826;2023-05-10T12:47:02;31.00;;;14.77;;
76357;SDS011;65185;21.060;105.826;2023-05-10T12:49:29;35.20;;;14.77;;
76357;SDS011;65185;21.060;105.826;2023-05-10T12:51:56;27.73;;;14.02;;
76357;SDS011;65185;21.060;105.826;2023-05-10T12:54:22;23.42;;;13.07;;
76357;SDS011;65185;21.060;105.826;2023-05-10T12:56:49;32.28;;;13.63;;
76357;SDS011;65185;21.060;105.826;2023-05-10T12:59:16;29.48;;;13.57;;
76357;SDS011;65185;21.060;105.826;2023-05-10T13:01:43;24.95;;;12.45;;
76357;SDS011;65185;21.060;105.826;2023-05-10T13:04:09;24.67;;;11.73;;
76357;SDS011;65185;21.060;105.826;2023-05-10T13:06:36;24.08;;;12.88;;
76357;SDS011;65185;21.060;105.826;2023-05-10T13:09:03;25.80;;;12.93;;
76357;SDS011;65185;21.060;105.826;2023-05-10T13:11:30;29.08;;;13.77;;
76357;SDS011;65185;21.060;105.826;2023-05-10T13:13:56;23.38;;;11.77;;
76357;SDS011;65185;21.060;105.826;2023-05-10T13:16:23;25.02;;;12.90;;
76357;SDS011;65185;21.060;105.826;2023-05-10T13:18:50;24.50;;;12.00;;
76357;SDS011;65185;21.060;105.826;2023-05-10T13:21:17;25.92;;;12.57;;
76357;SDS011;65185;21.060;105.826;2023-05-10T13:23:44;22.95;;;11.77;;
76357;SDS011;65185;21.060;105.826;2023-05-10T13:26:11;25.75;;;12.07;;
76357;SDS011;65185;21.060;105.826;2023-05-10T13:28:38;21.75;;;11.73;;
76357;SDS011;65185;21.060;105.826;2023-05-10T13:31:07;23.90;;;11.75;;
76357;SDS011;65185;21.060;105.826;2023-05-10T13:33:34;25.35;;;12.40;;
76357;SDS011;65185;21.060;105.826;2023-05-10T13:36:00;23.98;;;13.05;;
76357;SDS011;65185;21.060;105.826;2023-05-10T13:38:27;23.25;;;12.13;;
76357;SDS011;65185;21.060;105.826;2023-05-10T13:40:54;24.63;;;13.05;;
76357;SDS011;65185;21.060;105.826;2023-05-10T13:43:21;24.60;;;12.82;;
76357;SDS011;65185;21.060;105.826;2023-05-10T13:45:48;24.42;;;12.63;;
76357;SDS011;65185;21.060;105.826;2023-05-10T13:48:14;22.38;;;12.15;;
76357;SDS011;65185;21.060;105.826;2023-05-10T13:50:41;24.13;;;12.70;;
76357;SDS011;65185;21.060;105.826;2023-05-10T13:53:08;21.15;;;11.70;;
76357;SDS011;65185;21.060;105.826;2023-05-10T13:55:35;22.92;;;12.38;;
76357;SDS011;65185;21.060;105.826;2023-05-10T13:58:02;23.50;;;12.43;;
76357;SDS011;65185;21.060;105.826;2023-05-10T14:00:28;27.70;;;13.18;;
76357;SDS011;65185;21.060;105.826;2023-05-10T14:02:55;20.95;;;11.55;;
76357;SDS011;65185;21.060;105.826;2023-05-10T14:05:22;27.52;;;12.95;;
76357;SDS011;65185;21.060;105.826;2023-05-10T14:07:49;33.85;;;12.65;;
76357;SDS011;65185;21.060;105.826;2023-05-10T14:10:16;23.77;;;12.18;;
76357;SDS011;65185;21.060;105.826;2023-05-10T14:12:43;23.83;;;12.88;;
76357;SDS011;65185;21.060;105.826;2023-05-10T14:15:10;22.58;;;11.82;;
76357;SDS011;65185;21.060;105.826;2023-05-10T14:17:37;22.25;;;11.50;;
76357;SDS011;65185;21.060;105.826;2023-05-10T14:20:04;27.05;;;12.63;;
76357;SDS011;65185;21.060;105.826;2023-05-10T14:22:31;28.35;;;12.88;;
76357;SDS011;65185;21.060;105.826;2023-05-10T14:24:57;25.63;;;12.52;;
76357;SDS011;65185;21.060;105.826;2023-05-10T14:27:25;23.70;;;13.10;;
76357;SDS011;65185;21.060;105.826;2023-05-10T14:29:51;22.65;;;12.77;;
76357;SDS011;65185;21.060;105.826;2023-05-10T14:32:19;29.23;;;14.20;;
76357;SDS011;65185;21.060;105.826;2023-05-10T14:34:46;27.65;;;13.95;;
76357;SDS011;65185;21.060;105.826;2023-05-10T14:37:12;26.25;;;13.25;;
76357;SDS011;65185;21.060;105.826;2023-05-10T14:39:40;25.42;;;14.65;;
76357;SDS011;65185;21.060;105.826;2023-05-10T14:42:08;28.42;;;13.52;;
76357;SDS011;65185;21.060;105.826;2023-05-10T14:44:34;26.33;;;13.27;;
76357;SDS011;65185;21.060;105.826;2023-05-10T14:47:01;33.33;;;17.20;;
76357;SDS011;65185;21.060;105.826;2023-05-10T14:49:28;34.42;;;15.45;;